Time;durP1;ratioP1;P1;durP2;ratioP2;P2;SDS_P1;SDS_P2;PMS_P1;PMS_P2;Temp;Humidity;BMP_temperature;BMP_pressure;BME280_temperature;BME280_humidity;BME280_pressure;Samples;Min_cycle;Max_cycle;Signal;HPM_P1;HPM_P2
2023/10/21 00:02:15;;;;;;;;;;;16.00;60.70;;;;;;218323;1295;22588;-60
2023/10/21 00:07:17;;;;;;;;;;;16.00;60.40;;;;;;218394;1288;22546;-61
2023/10/21 00:12:20;;;;;;;;;;;16.10;60.80;;;;;;218057;1292;24238;-62
2023/10/21 00:17:22;;;;;;;;;;;16.00;60.50;;;;;;218207;1295;22631;-62
2023/10/21 00:22:28;;;;;;;;;;;15.90;60.70;;;;;;217960;1280;23431;-61
2023/10/21 00:27:31;;;;;;;;;;;16.00;60.30;;;;;;218267;1290;22533;-62
2023/10/21 00:32:33;;;;;;;;;;;16.10;60.20;;;;;;218408;1295;22673;-60
2023/10/21 00:37:36;;;;;;;;;;;16.10;60.30;;;;;;217937;1295;22748;-61
2023/10/21 00:42:39;;;;;;;;;;;16.00;60.20;;;;;;217878;1292;22751;-62
2023/10/21 00:47:41;;;;;;;;;;;16.00;60.20;;;;;;217953;1295;22555;-62
2023/10/21 00:52:46;;;;;;;;;;;16.00;60.30;;;;;;218367;1280;22540;-60
2023/10/21 00:57:49;;;;;;;;;;;16.00;60.20;;;;;;218351;1289;25275;-61
2023/10/21 01:02:51;;;;;;;;;;;16.00;60.30;;;;;;217986;1292;22573;-61
2023/10/21 01:07:58;;;;;;;;;;;16.00;60.50;;;;;;218221;1292;24234;-61
2023/10/21 01:13:01;;;;;;;;;;;16.00;60.20;;;;;;218418;1289;22770;-61
2023/10/21 01:18:04;;;;;;;;;;;16.00;60.00;;;;;;217746;1289;22581;-62
2023/10/21 01:23:14;;;;;;;;;;;16.00;60.20;;;;;;218368;1295;23933;-62
2023/10/21 01:28:17;;;;;;;;;;;16.00;60.10;;;;;;218374;1292;23964;-64
2023/10/21 01:33:20;;;;;;;;;;;16.00;60.10;;;;;;218276;1291;23942;-61
2023/10/21 01:38:24;;;;;;;;;;;16.10;60.00;;;;;;217817;1292;22660;-61
2023/10/21 01:43:27;;;;;;;;;;;16.00;60.00;;;;;;218330;1295;25236;-61
2023/10/21 01:48:30;;;;;;;;;;;16.10;59.80;;;;;;218070;1294;22539;-61
2023/10/21 01:53:33;;;;;;;;;;;16.10;59.50;;;;;;217882;1295;22530;-61
2023/10/21 01:58:36;;;;;;;;;;;16.10;60.00;;;;;;218354;1295;24038;-61
2023/10/21 02:03:40;;;;;;;;;;;16.10;59.90;;;;;;218049;1289;22642;-62
2023/10/21 02:08:42;;;;;;;;;;;16.00;60.00;;;;;;218432;1289;22546;-62
2023/10/21 02:13:45;;;;;;;;;;;16.10;60.50;;;;;;217963;1295;24028;-61
2023/10/21 02:18:48;;;;;;;;;;;16.10;59.80;;;;;;218373;1295;25196;-61
2023/10/21 02:23:50;;;;;;;;;;;16.10;60.20;;;;;;218303;1280;22533;-61
2023/10/21 02:28:53;;;;;;;;;;;16.10;60.20;;;;;;217802;1295;23933;-61
2023/10/21 02:33:56;;;;;;;;;;;16.10;59.90;;;;;;218401;1292;23915;-62
2023/10/21 02:38:59;;;;;;;;;;;16.20;59.80;;;;;;218087;1295;22546;-61
2023/10/21 02:44:02;;;;;;;;;;;16.10;59.90;;;;;;218122;1292;25513;-61
2023/10/21 02:49:05;;;;;;;;;;;16.10;60.00;;;;;;217995;1292;23332;-61
2023/10/21 02:54:08;;;;;;;;;;;16.20;59.90;;;;;;218322;1295;24387;-61
2023/10/21 02:59:10;;;;;;;;;;;16.10;59.90;;;;;;218322;1295;22620;-62
2023/10/21 03:04:13;;;;;;;;;;;16.10;60.00;;;;;;218543;1292;22538;-61
2023/10/21 03:09:16;;;;;;;;;;;16.10;60.20;;;;;;217789;1292;337422;-62
2023/10/21 03:14:19;;;;;;;;;;;16.10;60.00;;;;;;217917;1295;23926;-61
2023/10/21 03:19:21;;;;;;;;;;;16.10;60.00;;;;;;218245;1295;22534;-62
2023/10/21 03:24:25;;;;;;;;;;;16.10;60.00;;;;;;218432;1280;24260;-61
2023/10/21 03:29:28;;;;;;;;;;;16.10;60.00;;;;;;218290;1289;22733;-62
2023/10/21 03:34:32;;;;;;;;;;;16.10;59.90;;;;;;218197;1280;22583;-61
2023/10/21 03:39:35;;;;;;;;;;;16.10;60.00;;;;;;218004;1292;22534;-61
2023/10/21 03:44:37;;;;;;;;;;;16.10;60.00;;;;;;218328;1295;22531;-61
2023/10/21 03:49:41;;;;;;;;;;;16.10;59.90;;;;;;217954;1295;22598;-60
2023/10/21 03:54:43;;;;;;;;;;;16.20;59.80;;;;;;218261;1292;25394;-61
2023/10/21 03:59:46;;;;;;;;;;;16.10;60.10;;;;;;218006;1280;24111;-61
2023/10/21 04:04:49;;;;;;;;;;;16.10;59.90;;;;;;218191;1292;22774;-61
2023/10/21 04:09:52;;;;;;;;;;;16.10;59.90;;;;;;218045;1292;22527;-60
2023/10/21 04:14:54;;;;;;;;;;;16.10;59.90;;;;;;218513;1293;24437;-60
2023/10/21 04:19:58;;;;;;;;;;;16.10;59.90;;;;;;217924;1295;22527;-61
2023/10/21 04:25:01;;;;;;;;;;;16.10;60.10;;;;;;217966;1292;24375;-60
2023/10/21 04:30:04;;;;;;;;;;;16.10;60.00;;;;;;218450;1295;24252;-61
2023/10/21 04:35:08;;;;;;;;;;;16.10;59.80;;;;;;218562;1292;23132;-60
2023/10/21 04:40:11;;;;;;;;;;;16.10;59.90;;;;;;217882;1295;25596;-60
2023/10/21 04:45:14;;;;;;;;;;;16.10;59.90;;;;;;218263;1289;22523;-61
2023/10/21 04:50:17;;;;;;;;;;;16.10;59.80;;;;;;218182;1292;22611;-60
2023/10/21 04:55:21;;;;;;;;;;;16.10;59.80;;;;;;217748;1295;22518;-60
2023/10/21 05:00:23;;;;;;;;;;;16.20;60.00;;;;;;218280;1289;22528;-61
2023/10/21 05:05:26;;;;;;;;;;;16.20;59.80;;;;;;218294;1292;22534;-61
2023/10/21 05:10:29;;;;;;;;;;;16.20;60.40;;;;;;217894;1288;26602;-60
2023/10/21 05:15:31;;;;;;;;;;;16.10;59.90;;;;;;217782;1294;23955;-62
2023/10/21 05:20:34;;;;;;;;;;;16.20;59.70;;;;;;218197;1295;22550;-62
2023/10/21 05:25:37;;;;;;;;;;;16.10;59.70;;;;;;218139;1295;22655;-60
2023/10/21 05:30:41;;;;;;;;;;;16.20;59.90;;;;;;217879;1295;22658;-61
2023/10/21 05:35:43;;;;;;;;;;;16.20;59.90;;;;;;218382;1295;22534;-61
2023/10/21 05:40:46;;;;;;;;;;;16.20;60.10;;;;;;218265;1295;22539;-61
2023/10/21 05:45:49;;;;;;;;;;;16.10;59.80;;;;;;217929;1295;22616;-61
2023/10/21 05:50:51;;;;;;;;;;;16.10;59.90;;;;;;217971;1289;22556;-60
2023/10/21 05:55:55;;;;;;;;;;;16.20;59.60;;;;;;218288;1292;22604;-61
2023/10/21 06:01:05;;;;;;;;;;;16.20;59.70;;;;;;218278;1295;24409;-60
2023/10/21 06:06:08;;;;;;;;;;;16.10;60.00;;;;;;217740;1289;22526;-60
2023/10/21 06:11:11;;;;;;;;;;;16.10;59.90;;;;;;218654;1295;22527;-61
2023/10/21 06:16:13;;;;;;;;;;;16.10;60.00;;;;;;218112;1295;23926;-61
2023/10/21 06:21:17;;;;;;;;;;;16.20;59.80;;;;;;218331;1295;22540;-62
2023/10/21 06:26:19;;;;;;;;;;;16.20;60.00;;;;;;218341;1292;22550;-60
2023/10/21 06:31:22;;;;;;;;;;;16.10;60.50;;;;;;218062;1295;23910;-61
2023/10/21 06:36:24;;;;;;;;;;;16.10;59.80;;;;;;217975;1292;22533;-61
2023/10/21 06:41:27;;;;;;;;;;;16.20;59.70;;;;;;218439;1292;22546;-61
2023/10/21 06:46:30;;;;;;;;;;;16.20;59.70;;;;;;218107;1295;22533;-61
2023/10/21 06:51:33;;;;;;;;;;;16.00;60.40;;;;;;218002;1292;22568;-62
2023/10/21 06:56:37;;;;;;;;;;;16.10;60.00;;;;;;218512;1292;22527;-61
2023/10/21 07:01:40;;;;;;;;;;;16.10;59.90;;;;;;218134;1289;22559;-60
2023/10/21 07:06:42;;;;;;;;;;;16.10;60.40;;;;;;218583;1289;22743;-61
2023/10/21 07:11:45;;;;;;;;;;;16.20;60.00;;;;;;217981;1287;22717;-60
2023/10/21 07:16:48;;;;;;;;;;;16.20;59.90;;;;;;218165;1295;23279;-62
2023/10/21 07:21:51;;;;;;;;;;;16.10;60.20;;;;;;218441;1292;24278;-61
2023/10/21 07:26:54;;;;;;;;;;;16.10;60.10;;;;;;218443;1295;22646;-61
2023/10/21 07:31:57;;;;;;;;;;;16.10;60.80;;;;;;218215;1295;22534;-60
2023/10/21 07:37:00;;;;;;;;;;;16.00;60.50;;;;;;218375;1289;25258;-61
2023/10/21 07:42:03;;;;;;;;;;;16.00;60.40;;;;;;217886;1294;22653;-62
2023/10/21 07:47:06;;;;;;;;;;;16.10;60.30;;;;;;218290;1294;22531;-60
2023/10/21 07:52:09;;;;;;;;;;;16.20;60.00;;;;;;217957;1292;22537;-60
2023/10/21 07:57:12;;;;;;;;;;;16.40;59.50;;;;;;218133;1293;25459;-61
2023/10/21 08:02:14;;;;;;;;;;;16.30;59.70;;;;;;218282;1295;22517;-61
2023/10/21 08:07:18;;;;;;;;;;;16.30;59.70;;;;;;217914;1292;22532;-61
2023/10/21 08:12:20;;;;;;;;;;;16.30;60.10;;;;;;218239;1292;22613;-61
2023/10/21 08:17:23;;;;;;;;;;;16.40;59.40;;;;;;218234;1280;22547;-62
2023/10/21 08:22:26;;;;;;;;;;;16.50;59.40;;;;;;218073;1295;22561;-63
2023/10/21 08:27:28;;;;;;;;;;;16.60;59.00;;;;;;218312;1295;22679;-61
2023/10/21 08:32:34;;;;;;;;;;;16.70;59.00;;;;;;217793;1295;23601;-60
2023/10/21 08:37:37;;;;;;;;;;;16.60;59.00;;;;;;217882;1295;22542;-60
2023/10/21 08:42:40;;;;;;;;;;;16.70;59.20;;;;;;217916;1292;22903;-61
2023/10/21 08:48:03;;;;;;;;;;;16.70;59.10;;;;;;217726;1295;22623;-61
2023/10/21 08:53:11;;;;;;;;;;;16.60;59.20;;;;;;218302;1295;22655;-60
2023/10/21 08:58:15;;;;;;;;;;;16.80;59.30;;;;;;218433;1289;22530;-60
2023/10/21 09:03:19;;;;;;;;;;;16.90;58.80;;;;;;218048;1295;22556;-61
2023/10/21 09:08:30;;;;;;;;;;;16.90;58.70;;;;;;218647;1289;25095;-62
2023/10/21 09:13:34;;;;;;;;;;;16.90;58.90;;;;;;218089;1295;25487;-62
2023/10/21 09:18:37;;;;;;;;;;;17.00;58.70;;;;;;218260;1292;23956;-62
2023/10/21 09:24:00;;;;;;;;;;;17.10;58.60;;;;;;218276;1295;22534;-61
2023/10/21 09:29:10;;;;;;;;;;;17.10;59.00;;;;;;218164;1295;23340;-63
2023/10/21 09:34:30;;;;;;;;;;;17.10;58.70;;;;;;217940;1292;24230;-62
2023/10/21 09:39:33;;;;;;;;;;;17.20;58.70;;;;;;218710;1295;22557;-62
2023/10/21 09:44:38;;;;;;;;;;;17.20;58.60;;;;;;218225;1292;22528;-62
2023/10/21 09:49:42;;;;;;;;;;;17.30;58.70;;;;;;218100;1286;22543;-62
2023/10/21 09:54:48;;;;;;;;;;;17.30;58.70;;;;;;218307;1295;22539;-63
2023/10/21 09:59:51;;;;;;;;;;;17.40;58.70;;;;;;217933;1295;22531;-62
2023/10/21 10:04:54;;;;;;;;;;;17.40;58.50;;;;;;218019;1295;22589;-62
2023/10/21 10:09:57;;;;;;;;;;;17.50;58.50;;;;;;217787;1292;24561;-62
2023/10/21 10:15:00;;;;;;;;;;;17.50;58.50;;;;;;218085;1295;23953;-62
2023/10/21 10:20:18;;;;;;;;;;;17.60;58.40;;;;;;218156;1295;22588;-63
2023/10/21 10:25:27;;;;;;;;;;;17.70;58.30;;;;;;217921;1292;22547;-62
2023/10/21 10:30:30;;;;;;;;;;;17.80;58.40;;;;;;218192;1295;23089;-61
2023/10/21 10:35:37;;;;;;;;;;;17.80;58.00;;;;;;218156;1289;22543;-63
2023/10/21 10:40:40;;;;;;;;;;;17.90;57.90;;;;;;218063;1280;22605;-61
2023/10/21 10:45:42;;;;;;;;;;;18.00;57.90;;;;;;218243;1292;25466;-62
2023/10/21 10:50:46;;;;;;;;;;;18.00;57.70;;;;;;217973;1295;24111;-62
2023/10/21 10:55:49;;;;;;;;;;;18.10;57.70;;;;;;218336;1295;22665;-62
2023/10/21 11:00:52;;;;;;;;;;;18.10;57.60;;;;;;218268;1295;24124;-61
2023/10/21 11:05:57;;;;;;;;;;;18.10;57.50;;;;;;217957;1295;22527;-61
2023/10/21 11:11:06;;;;;;;;;;;18.20;57.40;;;;;;218060;1291;22538;-62
2023/10/21 11:16:08;;;;;;;;;;;18.30;57.30;;;;;;218260;1295;22534;-62
2023/10/21 11:21:11;;;;;;;;;;;18.30;57.30;;;;;;218033;1289;22673;-61
2023/10/21 11:26:14;;;;;;;;;;;18.30;57.20;;;;;;217897;1295;22653;-62
2023/10/21 11:31:18;;;;;;;;;;;18.40;57.20;;;;;;218188;1286;22708;-64
2023/10/21 11:36:21;;;;;;;;;;;18.50;57.20;;;;;;218349;1295;24317;-62
2023/10/21 11:41:23;;;;;;;;;;;18.50;57.00;;;;;;218217;1279;22658;-62
2023/10/21 11:46:26;;;;;;;;;;;18.50;57.00;;;;;;218236;1295;22544;-62
2023/10/21 11:51:29;;;;;;;;;;;18.50;56.90;;;;;;218314;1295;22543;-62
2023/10/21 11:56:57;;;;;;;;;;;18.60;57.30;;;;;;217936;1295;22656;-62
2023/10/21 12:34:19;;;;;;;;;;;18.80;56.80;;;;;;218362;1295;24402;-62
2023/10/21 12:44:23;;;;;;;;;;;18.80;56.70;;;;;;218379;1289;25423;-64
2023/10/21 12:49:30;;;;;;;;;;;18.90;56.70;;;;;;218334;1295;23647;-65
2023/10/21 12:54:33;;;;;;;;;;;18.90;56.70;;;;;;218128;1295;22534;-63
